createdAt,value
2022-10-05T00:01:43.775Z,13.33
2022-10-05T00:04:09.927Z,13.36
2022-10-05T00:06:36.457Z,13.36
2022-10-05T00:09:02.541Z,13.34
2022-10-05T00:11:28.634Z,13.34
2022-10-05T00:13:54.749Z,13.31
2022-10-05T00:16:20.940Z,13.32
2022-10-05T00:18:47.073Z,13.31
2022-10-05T00:21:13.265Z,13.34
2022-10-05T00:23:39.343Z,13.31
2022-10-05T00:26:05.445Z,13.29
2022-10-05T00:28:31.584Z,13.33
2022-10-05T00:30:57.706Z,13.34
2022-10-05T00:33:23.789Z,13.36
2022-10-05T00:35:49.893Z,13.29
2022-10-05T00:38:15.998Z,13.34
2022-10-05T00:40:42.080Z,13.30
2022-10-05T00:43:08.215Z,13.36
2022-10-05T00:45:34.354Z,13.24
2022-10-05T00:48:00.475Z,13.27
2022-10-05T00:50:26.607Z,13.24
2022-10-05T00:52:52.701Z,13.54
2022-10-05T00:55:18.789Z,13.60
2022-10-05T00:57:44.917Z,13.58
2022-10-05T01:00:11.009Z,13.64
2022-10-05T01:02:37.361Z,13.60
2022-10-05T01:05:03.531Z,13.56
2022-10-05T01:07:29.643Z,13.63
2022-10-05T01:09:55.730Z,13.61
2022-10-05T01:12:21.872Z,13.41
2022-10-05T01:14:47.966Z,13.34
2022-10-05T01:17:14.068Z,13.36
2022-10-05T01:19:40.176Z,13.35
2022-10-05T01:22:06.255Z,13.17
2022-10-05T01:24:32.328Z,13.17
2022-10-05T01:26:58.430Z,13.25
2022-10-05T01:29:24.525Z,13.26
2022-10-05T01:31:50.739Z,13.50
2022-10-05T01:34:17.072Z,13.52
2022-10-05T01:36:43.291Z,13.49
2022-10-05T01:39:09.518Z,13.54
2022-10-05T01:41:35.620Z,13.54
2022-10-05T01:44:01.711Z,13.50
2022-10-05T01:46:27.809Z,13.57
2022-10-05T01:48:53.926Z,13.60
2022-10-05T01:51:20.014Z,13.56
2022-10-05T01:53:46.110Z,13.26
2022-10-05T01:56:12.254Z,13.23
2022-10-05T01:58:38.357Z,13.20
2022-10-05T02:01:04.519Z,13.30
2022-10-05T02:03:30.654Z,13.25
2022-10-05T02:05:56.744Z,13.24
2022-10-05T02:08:22.830Z,13.26
2022-10-05T02:10:48.947Z,13.22
2022-10-05T02:13:15.035Z,13.21
2022-10-05T02:15:41.170Z,13.21
2022-10-05T02:18:07.345Z,13.15
2022-10-05T02:20:33.430Z,13.22
2022-10-05T02:22:59.555Z,13.24
2022-10-05T02:25:25.693Z,13.25
2022-10-05T02:27:51.776Z,13.24
2022-10-05T02:30:17.864Z,13.18
2022-10-05T02:32:43.969Z,13.18
2022-10-05T02:35:10.070Z,13.20
2022-10-05T02:37:36.176Z,13.22
2022-10-05T02:40:02.275Z,13.22
2022-10-05T02:42:28.362Z,13.20
2022-10-05T02:44:54.454Z,13.18
2022-10-05T02:47:20.556Z,13.21
2022-10-05T02:49:46.647Z,13.17
2022-10-05T02:52:12.786Z,13.17
2022-10-05T02:54:38.882Z,13.14
2022-10-05T02:57:04.983Z,13.14
2022-10-05T02:59:31.084Z,13.21
2022-10-05T03:01:57.247Z,13.16
2022-10-05T03:04:23.376Z,13.20
2022-10-05T03:06:49.548Z,13.22
2022-10-05T03:09:15.679Z,13.15
2022-10-05T03:11:41.768Z,13.11
2022-10-05T03:14:07.877Z,13.10
2022-10-05T03:16:34.473Z,13.03
2022-10-05T03:19:00.554Z,12.99
2022-10-05T03:21:26.641Z,13.18
2022-10-05T03:23:52.755Z,13.44
2022-10-05T03:26:18.864Z,13.27
2022-10-05T03:28:44.961Z,13.25
2022-10-05T03:31:11.155Z,13.26
2022-10-05T03:33:37.291Z,13.14
2022-10-05T03:36:03.381Z,13.13
2022-10-05T03:38:29.475Z,13.10
2022-10-05T03:40:55.549Z,13.10
2022-10-05T03:43:21.637Z,13.10
2022-10-05T03:45:47.804Z,13.11
2022-10-05T03:48:13.917Z,13.12
2022-10-05T03:50:40.029Z,13.07
2022-10-05T03:53:06.150Z,13.11
2022-10-05T03:55:32.244Z,13.07
2022-10-05T03:57:58.334Z,13.03
2022-10-05T04:00:24.550Z,12.85
2022-10-05T04:02:50.763Z,12.88
2022-10-05T04:05:16.915Z,13.03
2022-10-05T04:07:43.031Z,12.98
2022-10-05T04:10:09.128Z,12.97
2022-10-05T04:12:35.222Z,12.93
2022-10-05T04:15:01.369Z,12.93
2022-10-05T04:17:27.468Z,12.87
2022-10-05T04:19:53.567Z,12.85
2022-10-05T04:22:19.926Z,12.85
2022-10-05T04:24:46.011Z,12.82
2022-10-05T04:27:12.085Z,12.73
2022-10-05T04:29:38.188Z,12.74
2022-10-05T04:32:04.294Z,12.76
2022-10-05T04:34:30.397Z,12.70
2022-10-05T04:36:56.500Z,12.63
2022-10-05T04:39:22.609Z,12.68
2022-10-05T04:41:48.710Z,12.55
2022-10-05T04:44:14.822Z,12.62
2022-10-05T04:46:40.918Z,12.53
2022-10-05T04:49:07.062Z,12.50
2022-10-05T04:51:33.182Z,12.47
2022-10-05T04:53:59.273Z,12.51
2022-10-05T04:56:25.385Z,12.49
2022-10-05T04:58:51.960Z,12.43
2022-10-05T05:01:18.201Z,12.48
2022-10-05T05:03:44.395Z,12.48
2022-10-05T05:06:17.421Z,12.39
2022-10-05T05:08:44.238Z,12.38
2022-10-05T05:11:15.045Z,12.39
2022-10-05T05:13:42.382Z,12.32
2022-10-05T05:16:08.529Z,12.34
2022-10-05T05:18:34.684Z,12.31
2022-10-05T05:21:00.794Z,12.25
2022-10-05T05:23:26.879Z,12.29
2022-10-05T05:25:53.010Z,12.32
2022-10-05T05:28:19.203Z,12.34
2022-10-05T05:30:45.348Z,12.36
2022-10-05T05:33:11.555Z,12.36
2022-10-05T05:35:37.805Z,12.32
2022-10-05T05:38:03.900Z,12.34
2022-10-05T05:40:29.972Z,12.38
2022-10-05T05:42:56.101Z,12.44
2022-10-05T05:45:22.184Z,12.49
2022-10-05T05:47:48.346Z,12.36
2022-10-05T05:50:14.496Z,12.37
2022-10-05T05:52:40.573Z,12.43
2022-10-05T05:55:06.677Z,12.45
2022-10-05T05:57:32.786Z,12.39
2022-10-05T05:59:58.885Z,12.45
2022-10-05T06:02:25.084Z,12.35
2022-10-05T06:04:51.341Z,12.39
2022-10-05T06:07:17.416Z,12.49
2022-10-05T06:09:43.507Z,12.55
2022-10-05T06:12:09.618Z,12.56
2022-10-05T06:14:35.698Z,12.58
2022-10-05T06:17:01.780Z,12.65
2022-10-05T06:19:27.884Z,12.69
2022-10-05T06:21:53.996Z,12.73
2022-10-05T06:24:20.094Z,12.73
2022-10-05T06:26:47.235Z,12.81
2022-10-05T06:29:13.857Z,12.79
2022-10-05T06:31:40.005Z,12.90
2022-10-05T06:34:06.172Z,12.97
2022-10-05T06:36:32.280Z,12.99
2022-10-05T06:38:58.518Z,13.08
2022-10-05T06:41:24.669Z,13.08
2022-10-05T06:43:50.780Z,13.14
2022-10-05T06:46:17.084Z,13.18
2022-10-05T06:48:43.320Z,13.29
2022-10-05T06:51:09.419Z,13.32
2022-10-05T06:53:35.501Z,13.30
2022-10-05T06:56:01.744Z,13.36
2022-10-05T06:58:27.857Z,13.40
2022-10-05T07:00:56.340Z,13.45
2022-10-05T07:03:22.626Z,13.50
2022-10-05T07:05:48.954Z,13.54
2022-10-05T07:08:15.229Z,13.55
2022-10-05T07:10:41.658Z,13.56
2022-10-05T07:13:07.804Z,13.60
2022-10-05T07:15:33.903Z,13.61
2022-10-05T07:18:00.090Z,13.62
2022-10-05T07:20:26.274Z,13.67
2022-10-05T07:22:52.378Z,13.76
2022-10-05T07:25:18.686Z,13.74
2022-10-05T07:27:49.478Z,13.76
2022-10-05T07:30:17.800Z,13.75
2022-10-05T07:32:44.473Z,13.88
2022-10-05T07:35:10.561Z,13.87
2022-10-05T07:37:36.685Z,13.93
2022-10-05T07:40:02.808Z,13.98
2022-10-05T07:42:28.891Z,13.99
2022-10-05T07:44:54.969Z,14.12
2022-10-05T07:47:21.069Z,14.14
2022-10-05T07:49:47.183Z,14.15
2022-10-05T07:52:13.284Z,14.22
2022-10-05T07:54:39.417Z,14.22
2022-10-05T07:57:05.507Z,14.18
2022-10-05T07:59:31.583Z,14.23
2022-10-05T08:01:57.720Z,14.34
2022-10-05T08:04:23.824Z,14.35
2022-10-05T08:06:50.392Z,14.34
2022-10-05T08:09:16.757Z,14.35
2022-10-05T08:11:42.903Z,14.31
2022-10-05T08:14:09.007Z,14.19
2022-10-05T08:16:35.138Z,14.21
2022-10-05T08:19:01.423Z,14.20
2022-10-05T08:21:27.555Z,14.29
2022-10-05T08:23:53.730Z,14.39
2022-10-05T08:26:19.859Z,14.33
2022-10-05T08:28:45.952Z,14.36
2022-10-05T08:31:12.131Z,14.40
2022-10-05T08:33:38.257Z,14.37
2022-10-05T08:36:04.349Z,14.38
2022-10-05T08:38:30.468Z,14.36
2022-10-05T08:40:56.604Z,14.40
2022-10-05T08:43:22.695Z,14.45
2022-10-05T08:45:48.829Z,14.51
2022-10-05T08:48:15.127Z,14.52
2022-10-05T08:50:41.249Z,14.44
2022-10-05T08:53:07.368Z,14.49
2022-10-05T08:55:33.490Z,14.56
2022-10-05T08:57:59.578Z,14.53
2022-10-05T09:00:25.675Z,14.57
2022-10-05T09:02:51.866Z,14.51
2022-10-05T09:05:17.995Z,14.63
2022-10-05T09:07:44.106Z,14.66
2022-10-05T09:10:10.196Z,14.68
2022-10-05T09:12:36.294Z,14.65
2022-10-05T09:15:27.117Z,14.69
2022-10-05T09:17:48.469Z,14.57
2022-10-05T09:20:14.593Z,14.61
2022-10-05T09:22:40.697Z,14.77
2022-10-05T09:25:06.785Z,15.11
2022-10-05T09:27:32.896Z,15.26
2022-10-05T09:29:58.990Z,15.12
2022-10-05T09:32:25.078Z,15.20
2022-10-05T09:34:51.710Z,15.19
2022-10-05T09:37:17.815Z,15.24
2022-10-05T09:39:43.907Z,15.35
2022-10-05T09:42:10.308Z,15.47
2022-10-05T09:44:36.397Z,15.54
2022-10-05T09:47:02.490Z,15.46
2022-10-05T09:49:28.587Z,15.65
2022-10-05T09:51:54.691Z,15.75
2022-10-05T09:54:20.777Z,15.63
2022-10-05T09:56:47.108Z,15.81
2022-10-05T09:59:13.381Z,15.79
2022-10-05T10:01:39.517Z,15.93
2022-10-05T10:04:05.676Z,15.90
2022-10-05T10:06:31.767Z,15.91
2022-10-05T10:08:57.867Z,16.10
2022-10-05T10:11:23.999Z,16.00
2022-10-05T10:13:50.095Z,16.15
2022-10-05T10:16:16.292Z,16.21
2022-10-05T10:18:42.464Z,16.12
2022-10-05T10:21:08.546Z,16.21
2022-10-05T10:23:34.640Z,16.28
2022-10-05T10:26:00.774Z,16.17
2022-10-05T10:28:26.938Z,16.24
2022-10-05T10:30:53.152Z,16.28
2022-10-05T10:33:19.317Z,16.36
2022-10-05T10:35:45.421Z,16.34
2022-10-05T10:38:11.506Z,16.48
2022-10-05T10:40:37.610Z,16.66
2022-10-05T10:43:03.739Z,16.77
2022-10-05T10:45:29.832Z,16.78
2022-10-05T10:47:55.955Z,16.65
2022-10-05T10:50:22.070Z,16.88
2022-10-05T10:52:48.157Z,16.81
2022-10-05T10:55:14.267Z,16.78
2022-10-05T10:57:40.519Z,16.94
2022-10-05T11:00:06.670Z,16.93
2022-10-05T11:02:32.875Z,17.06
2022-10-05T11:04:59.080Z,17.19
2022-10-05T11:07:25.225Z,17.26
2022-10-05T11:09:51.353Z,17.34
2022-10-05T11:12:17.455Z,17.30
2022-10-05T11:14:43.533Z,17.21
2022-10-05T11:17:09.644Z,17.21
2022-10-05T11:19:40.197Z,17.23
2022-10-05T11:22:12.552Z,17.28
2022-10-05T11:24:38.628Z,17.21
2022-10-05T11:27:04.709Z,17.17
2022-10-05T11:29:30.831Z,17.00
2022-10-05T11:31:56.956Z,16.95
2022-10-05T11:34:23.091Z,17.27
2022-10-05T11:36:50.016Z,17.12
2022-10-05T11:39:16.121Z,17.24
2022-10-05T11:41:42.218Z,17.16
2022-10-05T11:44:08.320Z,17.01
2022-10-05T11:46:34.455Z,16.93
2022-10-05T11:49:00.581Z,16.88
2022-10-05T11:51:28.909Z,17.07
2022-10-05T11:53:55.209Z,16.95
2022-10-05T11:56:21.349Z,16.90
2022-10-05T11:58:47.461Z,17.02
2022-10-05T12:01:13.548Z,17.02
2022-10-05T12:03:39.747Z,16.97
2022-10-05T12:06:05.954Z,16.99
2022-10-05T12:08:32.039Z,17.07
2022-10-05T12:10:58.133Z,17.16
2022-10-05T12:13:24.235Z,17.16
2022-10-05T12:15:50.397Z,17.30
2022-10-05T12:18:16.532Z,17.29
2022-10-05T12:20:42.636Z,17.38
2022-10-05T12:23:08.731Z,17.46
2022-10-05T12:25:34.842Z,17.51
2022-10-05T12:28:01.004Z,17.42
2022-10-05T12:30:27.149Z,17.55
2022-10-05T12:32:55.834Z,17.66
2022-10-05T12:35:36.570Z,17.57
2022-10-05T12:38:10.332Z,17.59
2022-10-05T12:40:36.944Z,17.65
2022-10-05T12:43:03.039Z,17.66
2022-10-05T12:45:29.278Z,17.76
2022-10-05T12:47:55.448Z,17.83
2022-10-05T12:50:21.532Z,17.79
2022-10-05T12:52:47.685Z,17.74
2022-10-05T12:55:14.191Z,17.83
2022-10-05T12:57:40.280Z,17.86
2022-10-05T13:00:06.379Z,17.88
2022-10-05T13:02:32.566Z,18.21
2022-10-05T13:04:58.731Z,18.05
2022-10-05T13:07:24.857Z,18.04
2022-10-05T13:09:50.964Z,18.12
2022-10-05T13:12:17.053Z,18.15
2022-10-05T13:14:43.146Z,18.19
2022-10-05T13:17:09.272Z,18.25
2022-10-05T13:19:35.368Z,18.31
2022-10-05T13:22:01.668Z,18.34
2022-10-05T13:24:27.834Z,18.30
2022-10-05T13:26:53.933Z,18.30
2022-10-05T13:29:20.124Z,18.35
2022-10-05T13:31:46.288Z,18.38
2022-10-05T13:34:12.495Z,18.45
2022-10-05T13:36:38.671Z,18.52
2022-10-05T13:39:04.811Z,18.59
2022-10-05T13:41:30.908Z,18.65
2022-10-05T13:43:57.010Z,18.71
2022-10-05T13:46:23.240Z,18.76
2022-10-05T13:48:49.367Z,18.91
2022-10-05T13:51:15.825Z,18.87
2022-10-05T13:53:42.388Z,18.84
2022-10-05T13:56:08.479Z,18.87
2022-10-05T13:58:34.577Z,18.92
2022-10-05T14:01:00.703Z,19.00
2022-10-05T14:03:26.829Z,19.00
2022-10-05T14:05:55.708Z,19.05
2022-10-05T14:08:22.093Z,19.06
2022-10-05T14:10:48.179Z,19.11
2022-10-05T14:13:14.302Z,19.14
2022-10-05T14:15:42.424Z,19.17
2022-10-05T14:18:08.632Z,19.24
2022-10-05T14:20:34.729Z,19.28
2022-10-05T14:23:00.861Z,19.29
2022-10-05T14:25:27.154Z,19.30
2022-10-05T14:27:53.360Z,19.34
2022-10-05T14:30:19.682Z,19.42
2022-10-05T14:32:45.944Z,19.44
2022-10-05T14:35:12.101Z,19.51
2022-10-05T14:37:38.208Z,19.54
2022-10-05T14:40:04.296Z,19.57
2022-10-05T14:42:30.403Z,19.63
2022-10-05T14:44:56.513Z,19.81
2022-10-05T14:47:22.602Z,20.00
2022-10-05T14:49:48.713Z,20.08
2022-10-05T14:52:14.895Z,20.14
2022-10-05T14:54:41.001Z,20.31
2022-10-05T14:57:07.091Z,20.40
2022-10-05T14:59:33.557Z,20.57
2022-10-05T15:01:59.669Z,20.79
2022-10-05T15:04:25.845Z,21.09
2022-10-05T15:06:55.441Z,21.19
2022-10-05T15:09:22.403Z,21.40
2022-10-05T15:11:48.538Z,21.39
2022-10-05T15:14:14.646Z,21.39
2022-10-05T15:16:40.776Z,21.52
2022-10-05T15:19:07.286Z,21.73
2022-10-05T15:21:33.405Z,22.16
2022-10-05T15:23:59.525Z,21.95
2022-10-05T15:26:25.623Z,22.76
2022-10-05T15:28:51.735Z,23.10
2022-10-05T15:31:17.909Z,23.30
2022-10-05T15:33:44.075Z,23.54
2022-10-05T15:36:10.189Z,24.06
2022-10-05T15:38:36.287Z,24.35
2022-10-05T15:41:02.386Z,24.56
2022-10-05T15:43:28.485Z,24.03
2022-10-05T15:45:54.627Z,23.79
2022-10-05T15:48:21.068Z,24.09
2022-10-05T15:50:47.386Z,23.57
2022-10-05T15:53:13.472Z,23.58
2022-10-05T15:55:39.565Z,23.06
2022-10-05T15:58:05.672Z,23.17
2022-10-05T16:00:31.760Z,22.76
2022-10-05T16:02:57.842Z,22.79
2022-10-05T16:05:23.945Z,22.50
2022-10-05T16:07:50.028Z,22.55
2022-10-05T16:10:16.118Z,22.24
2022-10-05T16:12:42.217Z,21.60
2022-10-05T16:15:08.319Z,21.39
2022-10-05T16:17:34.404Z,20.90
2022-10-05T16:20:00.603Z,20.63
2022-10-05T16:22:26.712Z,20.58
2022-10-05T16:24:52.851Z,19.95
2022-10-05T16:27:18.964Z,19.87
2022-10-05T16:29:45.058Z,19.43
2022-10-05T16:32:11.146Z,19.39
2022-10-05T16:34:37.248Z,18.89
2022-10-05T16:37:03.337Z,18.77
2022-10-05T16:39:29.429Z,18.62
2022-10-05T16:41:55.539Z,18.58
2022-10-05T16:44:21.625Z,18.43
2022-10-05T16:46:47.772Z,18.41
2022-10-05T16:49:13.886Z,18.34
2022-10-05T16:51:39.973Z,18.15
2022-10-05T16:54:06.060Z,18.09
2022-10-05T16:56:32.194Z,18.09
2022-10-05T16:58:58.287Z,18.03
2022-10-05T17:01:24.431Z,17.94
2022-10-05T17:03:50.604Z,17.84
2022-10-05T17:06:16.707Z,17.78
2022-10-05T17:08:42.801Z,17.85
2022-10-05T17:11:10.524Z,17.77
2022-10-05T17:13:39.518Z,17.74
2022-10-05T17:16:05.660Z,17.65
2022-10-05T17:18:31.827Z,17.65
2022-10-05T17:20:58.073Z,17.68
2022-10-05T17:23:24.202Z,17.60
2022-10-05T17:25:50.339Z,17.53
2022-10-05T17:28:16.611Z,17.45
2022-10-05T17:30:42.818Z,17.42
2022-10-05T17:33:08.993Z,17.43
2022-10-05T17:35:35.221Z,17.41
2022-10-05T17:38:03.763Z,17.32
2022-10-05T17:40:29.856Z,17.26
2022-10-05T17:42:55.954Z,17.26
2022-10-05T17:45:22.066Z,17.28
2022-10-05T17:47:48.184Z,17.23
2022-10-05T17:50:14.327Z,17.20
2022-10-05T17:52:40.461Z,17.20
2022-10-05T17:55:06.564Z,17.18
2022-10-05T17:57:32.661Z,17.26
2022-10-05T17:59:58.740Z,17.24
2022-10-05T18:02:24.896Z,17.26
2022-10-05T18:04:51.019Z,17.32
2022-10-05T18:07:17.107Z,17.27
2022-10-05T18:09:43.237Z,17.23
2022-10-05T18:12:09.337Z,17.23
2022-10-05T18:14:35.433Z,17.20
2022-10-05T18:17:01.553Z,17.14
2022-10-05T18:19:27.644Z,17.11
2022-10-05T18:21:53.735Z,17.12
2022-10-05T18:24:19.982Z,17.06
2022-10-05T18:26:46.064Z,17.02
2022-10-05T18:29:12.149Z,16.99
2022-10-05T18:31:38.312Z,16.99
2022-10-05T18:34:04.469Z,16.90
2022-10-05T18:36:33.101Z,16.88
2022-10-05T18:39:03.059Z,16.87
2022-10-05T18:41:29.158Z,16.81
2022-10-05T18:43:55.282Z,16.87
2022-10-05T18:46:21.440Z,16.82
2022-10-05T18:48:47.608Z,16.80
2022-10-05T18:51:13.728Z,16.82
2022-10-05T18:53:39.855Z,16.82
2022-10-05T18:56:06.007Z,16.81
2022-10-05T18:58:32.115Z,16.81
2022-10-05T19:00:58.243Z,16.83
2022-10-05T19:03:24.342Z,16.79
2022-10-05T19:05:50.436Z,16.78
2022-10-05T19:08:16.552Z,16.82
2022-10-05T19:10:42.655Z,16.83
2022-10-05T19:13:08.748Z,16.81
2022-10-05T19:15:35.244Z,16.83
2022-10-05T19:18:01.426Z,16.80
2022-10-05T19:20:27.511Z,16.79
2022-10-05T19:22:53.642Z,16.82
2022-10-05T19:25:19.745Z,16.86
2022-10-05T19:27:45.838Z,16.89
2022-10-05T19:30:11.936Z,16.90
2022-10-05T19:32:38.028Z,16.90
2022-10-05T19:35:04.131Z,16.90
2022-10-05T19:37:30.258Z,16.93
2022-10-05T19:39:56.343Z,16.93
2022-10-05T19:42:22.450Z,16.91
2022-10-05T19:44:48.566Z,16.92
2022-10-05T19:47:14.738Z,16.94
2022-10-05T19:49:40.898Z,16.94
2022-10-05T19:52:07.065Z,16.97
2022-10-05T19:54:33.248Z,16.98
2022-10-05T19:56:59.418Z,17.01
2022-10-05T19:59:25.757Z,16.99
2022-10-05T20:01:51.905Z,17.20
2022-10-05T20:04:21.389Z,17.01
2022-10-05T20:06:47.522Z,17.02
2022-10-05T20:09:13.613Z,17.03
2022-10-05T20:11:39.860Z,17.07
2022-10-05T20:14:05.958Z,17.04
2022-10-05T20:16:32.460Z,17.07
2022-10-05T20:18:58.677Z,17.06
2022-10-05T20:21:25.309Z,17.07
2022-10-05T20:23:51.473Z,17.06
2022-10-05T20:26:17.586Z,17.09
2022-10-05T20:28:43.778Z,17.08
2022-10-05T20:31:10.068Z,17.07
2022-10-05T20:33:36.258Z,17.12
2022-10-05T20:36:02.511Z,17.09
2022-10-05T20:38:29.170Z,17.11
2022-10-05T20:40:55.531Z,17.15
2022-10-05T20:43:21.718Z,17.13
2022-10-05T20:45:47.813Z,17.10
2022-10-05T20:48:13.906Z,17.16
2022-10-05T20:50:40.142Z,17.13
2022-10-05T20:53:11.004Z,17.18
2022-10-05T20:55:38.165Z,17.18
2022-10-05T20:58:04.442Z,17.21
2022-10-05T21:00:33.948Z,17.23
2022-10-05T21:03:00.449Z,17.18
2022-10-05T21:05:26.694Z,17.20
2022-10-05T21:07:52.840Z,17.19
2022-10-05T21:10:18.939Z,17.19
2022-10-05T21:12:45.034Z,17.16
2022-10-05T21:15:11.133Z,17.17
2022-10-05T21:17:37.222Z,17.18
2022-10-05T21:20:03.329Z,17.20
2022-10-05T21:22:29.539Z,17.20
2022-10-05T21:24:55.679Z,17.17
2022-10-05T21:27:21.829Z,17.19
2022-10-05T21:29:50.058Z,17.16
2022-10-05T21:32:16.202Z,17.15
2022-10-05T21:34:42.345Z,17.13
2022-10-05T21:37:08.435Z,17.16
2022-10-05T21:39:34.592Z,17.16
2022-10-05T21:42:00.779Z,17.19
2022-10-05T21:44:26.966Z,17.17
2022-10-05T21:46:53.253Z,17.17
2022-10-05T21:49:19.852Z,17.14
2022-10-05T21:51:46.216Z,17.19
2022-10-05T21:54:12.313Z,17.07
2022-10-05T21:56:38.438Z,17.01
2022-10-05T21:59:08.131Z,17.02
2022-10-05T22:01:34.397Z,17.02
2022-10-05T22:04:00.859Z,16.95
2022-10-05T22:06:26.977Z,16.91
2022-10-05T22:08:53.203Z,16.92
2022-10-05T22:11:19.555Z,16.94
2022-10-05T22:13:45.768Z,16.91
2022-10-05T22:16:11.952Z,16.87
2022-10-05T22:18:38.265Z,16.81
2022-10-05T22:21:04.744Z,16.87
2022-10-05T22:23:30.863Z,16.80
2022-10-05T22:25:57.607Z,16.83
2022-10-05T22:28:23.777Z,16.79
2022-10-05T22:30:50.081Z,16.78
2022-10-05T22:33:16.413Z,16.77
2022-10-05T22:35:42.553Z,17.00
2022-10-05T22:38:08.648Z,17.07
2022-10-05T22:40:34.752Z,16.80
2022-10-05T22:43:00.839Z,16.72
2022-10-05T22:45:31.667Z,16.81
2022-10-05T22:47:58.617Z,16.70
2022-10-05T22:50:24.707Z,16.67
2022-10-05T22:52:50.797Z,16.58
2022-10-05T22:55:16.917Z,15.92
2022-10-05T22:57:43.009Z,14.91
2022-10-05T23:00:09.106Z,14.75
2022-10-05T23:02:35.235Z,14.33
2022-10-05T23:05:01.385Z,14.22
2022-10-05T23:07:27.470Z,14.19
2022-10-05T23:09:53.586Z,14.40
2022-10-05T23:12:19.678Z,14.44
2022-10-05T23:14:45.777Z,14.45
2022-10-05T23:17:11.881Z,14.41
2022-10-05T23:19:37.972Z,14.44
2022-10-05T23:22:04.061Z,14.42
2022-10-05T23:24:30.168Z,14.44
2022-10-05T23:26:56.260Z,14.43
2022-10-05T23:29:22.349Z,14.30
2022-10-05T23:31:48.769Z,14.29
2022-10-05T23:34:14.852Z,14.33
2022-10-05T23:36:40.936Z,14.36
2022-10-05T23:39:07.042Z,14.32
2022-10-05T23:41:33.171Z,14.21
2022-10-05T23:43:59.292Z,14.17
2022-10-05T23:46:25.459Z,14.09
2022-10-05T23:48:51.575Z,14.06
2022-10-05T23:51:17.655Z,13.89
2022-10-05T23:53:43.759Z,13.87
2022-10-05T23:56:09.857Z,13.88
2022-10-05T23:58:35.958Z,13.74
